Celebrity Infinity — 9HJD9 — position and weather

sailwx.info

Track history (hours):
 
Tides and Currents Weather Stations Pressure Air Temp Water Temp Dewpoint Dewpoint Depression Visibility Wind Speed Wind Dir Waves Ship Positions

Celebrity Infinity

Last reported at 2014-Sep-23 04:13 UTC. Time now 2014-Sep-24 02:31 UTC.
Position N 46°06' W 001°21'.

Length 294 m; draft 8.3 m.

Type: Ship. MMSI: 249048000.

Date/timePositionNaut miles runAvg speedWind from/ knotsBaromVisibWave heightAir tempDewpointWater temp
2014-Sep-23 04:13N 46°06' W 001°21'1015.0
2014-Sep-23 03:33N 46°07' W 001°35'1414.4
2014-Sep-23 02:33N 46°13' W 001°55'813.8
2014-Sep-23 02:00N 46°12' W 002°06'921.0 070 / 301020.010.8 19.0 17.0
2014-Sep-23 01:33N 46°19' W 002°15'1615.5
2014-Sep-23 00:33N 46°28' W 002°33'2717.0
2014-Sep-22 23:00N 46°42' W 003°06'8814.7 100 / 301022.010.8 19.0 17.0
2014-Sep-22 17:00N 47°36' W 004°48'2323.5 020 / 151022.527.0 18.9 21.8
2014-Sep-22 16:00N 47°48' W 005°18'17512.5 020 / 151022.527.0 18.9 21.8
2014-Sep-22 02:00N 50°00' W 002°24'8415.4 070 / 171027.0 5.4 0.516.6 17.1
2014-Sep-21 20:33N 49°36' W 000°19'1413.8
2014-Sep-21 19:33N 49°30' W 000°00'5 4.3
2014-Sep-21 18:29N 49°29' E 000°06'0 0.0
2014-Sep-21 17:31N 49°29' E 000°06'0 0.0
2014-Sep-21 16:28N 49°29' E 000°06'0 0.0
2014-Sep-21 15:33N 49°29' E 000°06'0 0.0
2014-Sep-21 14:33N 49°29' E 000°06'5 8.7
2014-Sep-21 14:00N 49°24' E 000°06'510.7 040 / 51019.0 5.4 20.513.718.7
2014-Sep-21 13:32N 49°29' E 000°06'0 0.0
2014-Sep-21 12:32N 49°29' E 000°06'0 0.0
2014-Sep-21 11:32N 49°29' E 000°06'0 0.0
2014-Sep-21 10:31N 49°29' E 000°06'0 0.0
2014-Sep-21 09:31N 49°29' E 000°06'0 0.0
2014-Sep-21 08:30N 49°29' E 000°06'0 0.0
2014-Sep-21 07:30N 49°29' E 000°06'0 0.0
2014-Sep-21 06:29N 49°29' E 000°06'0 0.0
2014-Sep-21 05:32N 49°29' E 000°06'0 0.0
2014-Sep-21 04:29N 49°29' E 000°06'0 0.0
2014-Sep-21 03:28N 49°29' E 000°06'0 0.0
2014-Sep-21 02:28N 49°29' E 000°06'510.3
2014-Sep-21 02:00N 49°24' E 000°06'511.1 040 / 51019.0 5.4 20.513.718.7
2014-Sep-21 01:33N 49°29' E 000°06'5 8.6
2014-Sep-21 01:00N 49°24' E 000°06'510.9 040 / 51019.0 5.4 20.513.718.7
2014-Sep-21 00:33N 49°29' E 000°06'0 0.0
2014-Sep-20 23:32N 49°29' E 000°06'0 0.0
2014-Sep-20 22:32N 49°29' E 000°06'0 0.0
2014-Sep-20 21:32N 49°29' E 000°06'0 0.0
2014-Sep-20 20:31N 49°29' E 000°06'0 0.0
2014-Sep-20 19:31N 49°29' E 000°06'0 0.0
2014-Sep-20 18:30N 49°29' E 000°06'0 0.0
2014-Sep-20 17:30N 49°29' E 000°06'0 0.0
2014-Sep-20 16:29N 49°29' E 000°06'0 0.0
2014-Sep-20 15:32N 49°29' E 000°06'0 0.0
2014-Sep-20 14:28N 49°29' E 000°06'0 0.0
2014-Sep-20 13:28N 49°29' E 000°06'0 0.0
2014-Sep-20 12:28N 49°29' E 000°06'0 0.0
2014-Sep-20 11:33N 49°29' E 000°06'0 0.0
2014-Sep-20 10:33N 49°29' E 000°06'0 0.0
2014-Sep-20 09:33N 49°29' E 000°06'0 0.0
2014-Sep-20 08:32N 49°29' E 000°06'0 0.0
2014-Sep-20 07:32N 49°29' E 000°06'0 0.0
2014-Sep-20 06:31N 49°29' E 000°06'0 0.0
2014-Sep-20 05:33N 49°29' E 000°06'4 4.0
2014-Sep-20 04:34N 49°30' E 000°01'1111.2
2014-Sep-20 03:33N 49°38' W 000°12'2115.8
2014-Sep-20 02:14N 49°58' W 000°15'1040.0
2014-Sep-20 02:00N 50°06' W 000°06'914.0 160 / 71014.0 5.4 18.0 15.0
2014-Sep-20 01:21N 50°15' W 000°08'1518.8
2014-Sep-20 00:33N 50°28' E 000°03'1017.5
2014-Sep-20 00:00N 50°30' E 000°18'1123.8 140 / 71012.0 1.1 18.0 15.0
2014-Sep-19 23:33N 50°34' E 000°33'1919.3
2014-Sep-19 22:33N 50°45' E 000°58'1817.9
2014-Sep-19 21:34N 50°56' E 001°20'1717.0
2014-Sep-19 20:34N 51°09' E 001°39'1817.8
2014-Sep-19 19:34N 51°24' E 001°53'1918.6
2014-Sep-19 18:34N 51°42' E 001°45'1414.0
2014-Sep-19 17:33N 51°54' E 001°34'1110.6
2014-Sep-19 16:34N 51°57' E 001°17'1 0.9
2014-Sep-19 15:33N 51°57' E 001°16'0 0.0
2014-Sep-19 14:33N 51°57' E 001°16'0 0.0
2014-Sep-19 13:32N 51°57' E 001°16'4 6.6
2014-Sep-19 13:00N 51°54' E 001°12'4 7.9 140 / 71012.0 1.1 18.0 15.0
2014-Sep-19 12:32N 51°57' E 001°16'0 0.0
2014-Sep-19 11:31N 51°57' E 001°16'0 0.0
2014-Sep-19 10:33N 51°57' E 001°16'0 0.0
2014-Sep-19 09:33N 51°57' E 001°16'0 0.0
2014-Sep-19 08:32N 51°57' E 001°16'0 0.0
2014-Sep-19 07:32N 51°57' E 001°16'0 0.0
2014-Sep-19 06:32N 51°57' E 001°16'0 0.0
2014-Sep-19 05:31N 51°57' E 001°16'0 0.0
2014-Sep-19 04:31N 51°57' E 001°16'0 0.0
2014-Sep-19 03:34N 51°57' E 001°16'7 7.0
2014-Sep-19 02:34N 51°56' E 001°27'9 9.3
2014-Sep-19 01:33N 51°51' E 001°40'1010.4
2014-Sep-19 00:33N 51°43' E 001°49'1514.9
2014-Sep-18 23:33N 51°29' E 001°57'1413.9
2014-Sep-18 22:33N 51°16' E 002°06'1514.9
2014-Sep-18 21:33N 51°07' E 001°47'1515.0
2014-Sep-18 20:33N 50°56' E 001°30'1515.2
2014-Sep-18 19:33N 50°43' E 001°20'1515.2
2014-Sep-18 18:33N 50°32' E 001°03'3 5.2
2014-Sep-18 18:00N 50°30' E 001°00'1228.1 030 / 151009.0 0.3 19.3 22.5
2014-Sep-18 17:33N 50°27' E 000°41'1515.0
2014-Sep-18 16:33N 50°23' E 000°19'1515.2
2014-Sep-18 15:33N 50°19' W 000°04'1715.0
2014-Sep-18 14:26N 50°14' W 000°29'919.9
2014-Sep-18 14:00N 50°06' W 000°36'17015.5 120 / 151003.0 2.2 16.0 14.0
2014-Sep-18 03:00N 49°06' W 004°42'12015.0 120 / 151004.0 2.2 16.0 15.0
2014-Sep-17 19:00N 47°30' W 006°30'22414.9 110 / 121004.8 0.5 19.6 22.7
2014-Sep-17 04:00N 44°12' W 009°00'121 8.6 140 / 28996.5 19.0 23.7
2014-Sep-16 14:00N 42°12' W 008°42'92 8.3 090 / 161003.010.8 20.0 19.0
2014-Sep-16 03:00N 43°30' W 009°48'3316.3 120 / 241014.210.8 19.4 24.1
2014-Sep-16 01:00N 43°42' W 009°06'11220.6 330 / 81012.527.0 21.1 20.0
2014-Sep-15 19:32N 43°58' W 006°32'1919.6
2014-Sep-15 18:33N 43°54' W 006°06'2020.2
2014-Sep-15 17:33N 43°52' W 005°38'2019.9
2014-Sep-15 16:33N 43°49' W 005°10'2019.7
2014-Sep-15 15:33N 43°44' W 004°44'1018.3
2014-Sep-15 15:00N 43°42' W 004°30'1420.6 060 / 111011.027.0 24.2 26.3
2014-Sep-15 14:20N 43°40' W 004°11'1519.7
2014-Sep-15 13:34N 43°37' W 003°51'2019.8
2014-Sep-15 12:33N 43°33' W 003°24'2314.5
2014-Sep-15 11:00N 43°18' W 003°00'0 0.0 330 / 81012.527.0 21.1 20.0
2014-Sep-15 03:00N 43°18' W 003°00'0 0.0 130 / 51013.5 17.2 20.4
2014-Sep-15 01:00N 43°18' W 003°00'0 0.0 330 / 81012.527.0 21.1 20.0
2014-Sep-15 00:00N 43°18' W 003°00'0 0.0 330 / 81012.527.0 21.1 20.0
2014-Sep-14 05:00N 43°18' W 003°00'7 4.9 130 / 71015.027.0 17.6 21.3
2014-Sep-14 03:33N 43°24' W 003°06'2216.6
2014-Sep-14 02:15N 43°44' W 002°54'1217.1
2014-Sep-14 01:33N 43°55' W 002°49'4517.5
2014-Sep-13 23:00N 44°36' W 002°24'9717.8 060 / 151018.227.0 24.3 23.4
2014-Sep-13 17:32N 46°08' W 001°38'18 4.0
2014-Sep-13 13:00N 46°06' W 001°12'0 0.0 050 / 111019.627.0 14.6 22.6
2014-Sep-13 12:00N 46°06' W 001°12'4 1.0 050 / 111019.627.0 14.6 22.6
2014-Sep-13 08:12N 46°10' W 001°14'0 0.0
2014-Sep-13 07:23N 46°10' W 001°14'0 0.0
2014-Sep-13 06:17N 46°10' W 001°14'4 3.1
2014-Sep-13 05:00N 46°06' W 001°12'   050 / 111019.627.0 14.6 22.6
Track history (hours):
 
Tides and Currents Weather Stations Pressure Air Temp Water Temp Dewpoint Dewpoint Depression Visibility Wind Speed Wind Dir Waves Ship Positions

Celebrity Infinity

Last reported at 2014-Sep-23 04:13 UTC. Time now 2014-Sep-24 02:31 UTC.
Position N 46°06' W 001°21'.

Length 294 m; draft 8.3 m.

Type: Ship. MMSI: 249048000.

Date/timePositionNaut miles runAvg speedWind from/ knotsBaromVisibWave heightAir tempDewpointWater temp
2014-Sep-23 04:13N 46°06' W 001°21'1015.0
2014-Sep-23 03:33N 46°07' W 001°35'1414.4
2014-Sep-23 02:33N 46°13' W 001°55'813.8
2014-Sep-23 02:00N 46°12' W 002°06'921.0 070 / 301020.010.8 19.0 17.0
2014-Sep-23 01:33N 46°19' W 002°15'1615.5
2014-Sep-23 00:33N 46°28' W 002°33'2717.0
2014-Sep-22 23:00N 46°42' W 003°06'8814.7 100 / 301022.010.8 19.0 17.0
2014-Sep-22 17:00N 47°36' W 004°48'2323.5 020 / 151022.527.0 18.9 21.8
2014-Sep-22 16:00N 47°48' W 005°18'17512.5 020 / 151022.527.0 18.9 21.8
2014-Sep-22 02:00N 50°00' W 002°24'8415.4 070 / 171027.0 5.4 0.516.6 17.1
2014-Sep-21 20:33N 49°36' W 000°19'1413.8
2014-Sep-21 19:33N 49°30' W 000°00'5 4.3
2014-Sep-21 18:29N 49°29' E 000°06'0 0.0
2014-Sep-21 17:31N 49°29' E 000°06'0 0.0
2014-Sep-21 16:28N 49°29' E 000°06'0 0.0
2014-Sep-21 15:33N 49°29' E 000°06'0 0.0
2014-Sep-21 14:33N 49°29' E 000°06'5 8.7
2014-Sep-21 14:00N 49°24' E 000°06'510.7 040 / 51019.0 5.4 20.513.718.7
2014-Sep-21 13:32N 49°29' E 000°06'0 0.0
2014-Sep-21 12:32N 49°29' E 000°06'0 0.0
2014-Sep-21 11:32N 49°29' E 000°06'0 0.0
2014-Sep-21 10:31N 49°29' E 000°06'0 0.0
2014-Sep-21 09:31N 49°29' E 000°06'0 0.0
2014-Sep-21 08:30N 49°29' E 000°06'0 0.0
2014-Sep-21 07:30N 49°29' E 000°06'0 0.0
2014-Sep-21 06:29N 49°29' E 000°06'0 0.0
2014-Sep-21 05:32N 49°29' E 000°06'0 0.0
2014-Sep-21 04:29N 49°29' E 000°06'0 0.0
2014-Sep-21 03:28N 49°29' E 000°06'0 0.0
2014-Sep-21 02:28N 49°29' E 000°06'510.3
2014-Sep-21 02:00N 49°24' E 000°06'511.1 040 / 51019.0 5.4 20.513.718.7
2014-Sep-21 01:33N 49°29' E 000°06'5 8.6
2014-Sep-21 01:00N 49°24' E 000°06'510.9 040 / 51019.0 5.4 20.513.718.7
2014-Sep-21 00:33N 49°29' E 000°06'0 0.0
2014-Sep-20 23:32N 49°29' E 000°06'0 0.0
2014-Sep-20 22:32N 49°29' E 000°06'0 0.0
2014-Sep-20 21:32N 49°29' E 000°06'0 0.0
2014-Sep-20 20:31N 49°29' E 000°06'0 0.0
2014-Sep-20 19:31N 49°29' E 000°06'0 0.0
2014-Sep-20 18:30N 49°29' E 000°06'0 0.0
2014-Sep-20 17:30N 49°29' E 000°06'0 0.0
2014-Sep-20 16:29N 49°29' E 000°06'0 0.0
2014-Sep-20 15:32N 49°29' E 000°06'0 0.0
2014-Sep-20 14:28N 49°29' E 000°06'0 0.0
2014-Sep-20 13:28N 49°29' E 000°06'0 0.0
2014-Sep-20 12:28N 49°29' E 000°06'0 0.0
2014-Sep-20 11:33N 49°29' E 000°06'0 0.0
2014-Sep-20 10:33N 49°29' E 000°06'0 0.0
2014-Sep-20 09:33N 49°29' E 000°06'0 0.0
2014-Sep-20 08:32N 49°29' E 000°06'0 0.0
2014-Sep-20 07:32N 49°29' E 000°06'0 0.0
2014-Sep-20 06:31N 49°29' E 000°06'0 0.0
2014-Sep-20 05:33N 49°29' E 000°06'4 4.0
2014-Sep-20 04:34N 49°30' E 000°01'1111.2
2014-Sep-20 03:33N 49°38' W 000°12'2115.8
2014-Sep-20 02:14N 49°58' W 000°15'1040.0
2014-Sep-20 02:00N 50°06' W 000°06'914.0 160 / 71014.0 5.4 18.0 15.0
2014-Sep-20 01:21N 50°15' W 000°08'1518.8
2014-Sep-20 00:33N 50°28' E 000°03'1017.5
2014-Sep-20 00:00N 50°30' E 000°18'1123.8 140 / 71012.0 1.1 18.0 15.0
2014-Sep-19 23:33N 50°34' E 000°33'1919.3
2014-Sep-19 22:33N 50°45' E 000°58'1817.9
2014-Sep-19 21:34N 50°56' E 001°20'1717.0
2014-Sep-19 20:34N 51°09' E 001°39'1817.8
2014-Sep-19 19:34N 51°24' E 001°53'1918.6
2014-Sep-19 18:34N 51°42' E 001°45'1414.0
2014-Sep-19 17:33N 51°54' E 001°34'1110.6
2014-Sep-19 16:34N 51°57' E 001°17'1 0.9
2014-Sep-19 15:33N 51°57' E 001°16'0 0.0
2014-Sep-19 14:33N 51°57' E 001°16'0 0.0
2014-Sep-19 13:32N 51°57' E 001°16'4 6.6
2014-Sep-19 13:00N 51°54' E 001°12'4 7.9 140 / 71012.0 1.1 18.0 15.0
2014-Sep-19 12:32N 51°57' E 001°16'0 0.0
2014-Sep-19 11:31N 51°57' E 001°16'0 0.0
2014-Sep-19 10:33N 51°57' E 001°16'0 0.0
2014-Sep-19 09:33N 51°57' E 001°16'0 0.0
2014-Sep-19 08:32N 51°57' E 001°16'0 0.0
2014-Sep-19 07:32N 51°57' E 001°16'0 0.0
2014-Sep-19 06:32N 51°57' E 001°16'0 0.0
2014-Sep-19 05:31N 51°57' E 001°16'0 0.0
2014-Sep-19 04:31N 51°57' E 001°16'0 0.0
2014-Sep-19 03:34N 51°57' E 001°16'7 7.0
2014-Sep-19 02:34N 51°56' E 001°27'9 9.3
2014-Sep-19 01:33N 51°51' E 001°40'1010.4
2014-Sep-19 00:33N 51°43' E 001°49'1514.9
2014-Sep-18 23:33N 51°29' E 001°57'1413.9
2014-Sep-18 22:33N 51°16' E 002°06'1514.9
2014-Sep-18 21:33N 51°07' E 001°47'1515.0
2014-Sep-18 20:33N 50°56' E 001°30'1515.2
2014-Sep-18 19:33N 50°43' E 001°20'1515.2
2014-Sep-18 18:33N 50°32' E 001°03'3 5.2
2014-Sep-18 18:00N 50°30' E 001°00'1228.1 030 / 151009.0 0.3 19.3 22.5
2014-Sep-18 17:33N 50°27' E 000°41'1515.0
2014-Sep-18 16:33N 50°23' E 000°19'1515.2
2014-Sep-18 15:33N 50°19' W 000°04'1715.0
2014-Sep-18 14:26N 50°14' W 000°29'919.9
2014-Sep-18 14:00N 50°06' W 000°36'17015.5 120 / 151003.0 2.2 16.0 14.0
2014-Sep-18 03:00N 49°06' W 004°42'12015.0 120 / 151004.0 2.2 16.0 15.0
2014-Sep-17 19:00N 47°30' W 006°30'22414.9 110 / 121004.8 0.5 19.6 22.7
2014-Sep-17 04:00N 44°12' W 009°00'121 8.6 140 / 28996.5 19.0 23.7
2014-Sep-16 14:00N 42°12' W 008°42'92 8.3 090 / 161003.010.8 20.0 19.0
2014-Sep-16 03:00N 43°30' W 009°48'3316.3 120 / 241014.210.8 19.4 24.1
2014-Sep-16 01:00N 43°42' W 009°06'11220.6 330 / 81012.527.0 21.1 20.0
2014-Sep-15 19:32N 43°58' W 006°32'1919.6
2014-Sep-15 18:33N 43°54' W 006°06'2020.2
2014-Sep-15 17:33N 43°52' W 005°38'2019.9
2014-Sep-15 16:33N 43°49' W 005°10'2019.7
2014-Sep-15 15:33N 43°44' W 004°44'1018.3
2014-Sep-15 15:00N 43°42' W 004°30'1420.6 060 / 111011.027.0 24.2 26.3
2014-Sep-15 14:20N 43°40' W 004°11'1519.7
2014-Sep-15 13:34N 43°37' W 003°51'2019.8
2014-Sep-15 12:33N 43°33' W 003°24'2314.5
2014-Sep-15 11:00N 43°18' W 003°00'0 0.0 330 / 81012.527.0 21.1 20.0
2014-Sep-15 03:00N 43°18' W 003°00'0 0.0 130 / 51013.5 17.2 20.4
2014-Sep-15 01:00N 43°18' W 003°00'0 0.0 330 / 81012.527.0 21.1 20.0
2014-Sep-15 00:00N 43°18' W 003°00'0 0.0 330 / 81012.527.0 21.1 20.0
2014-Sep-14 05:00N 43°18' W 003°00'7 4.9 130 / 71015.027.0 17.6 21.3
2014-Sep-14 03:33N 43°24' W 003°06'2216.6
2014-Sep-14 02:15N 43°44' W 002°54'1217.1
2014-Sep-14 01:33N 43°55' W 002°49'4517.5
2014-Sep-13 23:00N 44°36' W 002°24'9717.8 060 / 151018.227.0 24.3 23.4
2014-Sep-13 17:32N 46°08' W 001°38'18 4.0
2014-Sep-13 13:00N 46°06' W 001°12'0 0.0 050 / 111019.627.0 14.6 22.6
2014-Sep-13 12:00N 46°06' W 001°12'4 1.0 050 / 111019.627.0 14.6 22.6
2014-Sep-13 08:12N 46°10' W 001°14'0 0.0
2014-Sep-13 07:23N 46°10' W 001°14'0 0.0
2014-Sep-13 06:17N 46°10' W 001°14'4 3.1
2014-Sep-13 05:00N 46°06' W 001°12'   050 / 111019.627.0 14.6 22.6

Dump ship's entire track history